createdAt,value
2018-05-14T00:00:17.641Z,106.65
2018-05-14T00:01:23.026Z,107.00
2018-05-14T00:02:28.651Z,105.20
2018-05-14T00:03:34.093Z,104.03
2018-05-14T00:04:39.624Z,105.20
2018-05-14T00:05:44.904Z,110.05
2018-05-14T00:06:50.201Z,109.07
2018-05-14T00:07:55.553Z,110.60
2018-05-14T00:09:00.828Z,108.60
2018-05-14T00:10:06.140Z,115.55
2018-05-14T00:11:11.918Z,114.72
2018-05-14T00:12:17.298Z,116.90
2018-05-14T00:13:24.708Z,109.85
2018-05-14T00:14:30.885Z,115.18
2018-05-14T00:15:36.293Z,113.57
2018-05-14T00:16:41.882Z,109.80
2018-05-14T00:17:48.377Z,112.25
2018-05-14T00:18:53.964Z,111.68
2018-05-14T00:19:59.217Z,112.13
2018-05-14T00:21:04.463Z,116.62
2018-05-14T00:22:09.723Z,113.50
2018-05-14T00:23:15.060Z,117.05
2018-05-14T00:24:20.393Z,114.90
2018-05-14T00:25:28.476Z,117.90
2018-05-14T00:26:33.834Z,118.90
2018-05-14T00:27:39.084Z,120.30
2018-05-14T00:28:44.367Z,116.53
2018-05-14T00:29:49.763Z,114.80
2018-05-14T00:30:55.083Z,118.50
2018-05-14T00:32:00.627Z,118.70
2018-05-14T00:33:05.911Z,112.43
2018-05-14T00:34:11.177Z,113.00
2018-05-14T00:35:16.467Z,122.30
2018-05-14T00:36:21.777Z,118.28
2018-05-14T00:37:27.578Z,115.57
2018-05-14T00:38:33.680Z,120.78
2018-05-14T00:39:39.406Z,119.00
2018-05-14T00:40:44.926Z,118.72
2018-05-14T00:41:50.687Z,115.90
2018-05-14T00:42:56.202Z,118.28
2018-05-14T00:44:01.441Z,120.57
2018-05-14T00:45:07.088Z,114.90
2018-05-14T00:46:12.989Z,116.62
2018-05-14T00:47:18.511Z,113.90
2018-05-14T00:48:23.807Z,119.50
2018-05-14T00:49:29.359Z,113.80
2018-05-14T00:50:34.607Z,118.93
2018-05-14T00:51:40.693Z,118.43
2018-05-14T00:52:46.410Z,116.67
2018-05-14T00:53:52.790Z,118.72
2018-05-14T00:55:02.730Z,118.28
2018-05-14T00:56:08.138Z,114.47
2018-05-14T00:57:13.470Z,114.30
2018-05-14T00:58:18.887Z,117.63
2018-05-14T00:59:25.565Z,117.50
2018-05-14T01:00:32.201Z,118.43
2018-05-14T01:01:37.488Z,117.68
2018-05-14T01:02:43.124Z,117.45
2018-05-14T01:03:48.665Z,114.32
2018-05-14T01:04:54.241Z,117.53
2018-05-14T01:05:59.658Z,120.97
2018-05-14T01:07:05.050Z,118.97
2018-05-14T01:08:11.220Z,116.47
2018-05-14T01:09:16.768Z,113.90
2018-05-14T01:10:22.082Z,114.50
2018-05-14T01:11:27.337Z,116.50
2018-05-14T01:12:33.452Z,115.25
2018-05-14T01:13:39.130Z,116.60
2018-05-14T01:14:44.379Z,116.07
2018-05-14T01:15:50.409Z,116.03
2018-05-14T01:16:55.798Z,114.35
2018-05-14T01:18:01.390Z,113.18
2018-05-14T01:19:07.025Z,113.00
2018-05-14T01:20:12.269Z,112.93
2018-05-14T01:21:17.612Z,118.00
2018-05-14T01:22:22.877Z,116.10
2018-05-14T01:23:28.204Z,119.47
2018-05-14T01:24:34.110Z,119.03
2018-05-14T01:25:40.045Z,116.30
2018-05-14T01:26:45.961Z,114.57
2018-05-14T01:27:52.314Z,115.95
2018-05-14T01:28:57.650Z,112.37
2018-05-14T01:30:02.962Z,111.55
2018-05-14T01:31:08.544Z,114.20
2018-05-14T01:32:13.835Z,114.87
2018-05-14T01:33:19.905Z,112.12
2018-05-14T01:34:25.237Z,110.22
2018-05-14T01:35:30.991Z,112.97
2018-05-14T01:36:36.278Z,112.57
2018-05-14T01:37:41.537Z,110.43
2018-05-14T01:38:46.933Z,110.05
2018-05-14T01:39:52.219Z,110.12
2018-05-14T01:40:57.561Z,117.87
2018-05-14T01:42:02.839Z,114.57
2018-05-14T01:43:08.119Z,117.55
2018-05-14T01:44:13.817Z,118.30
2018-05-14T01:45:19.062Z,115.68
2018-05-14T01:46:24.334Z,114.25
2018-05-14T01:47:29.650Z,116.00
2018-05-14T01:48:35.110Z,115.30
2018-05-14T01:49:40.850Z,117.28
2018-05-14T01:52:54.034Z,110.90
2018-05-14T01:53:59.467Z,112.10
2018-05-14T01:55:04.841Z,110.82
2018-05-14T01:56:10.277Z,107.53
2018-05-14T01:57:15.635Z,109.25
2018-05-14T01:58:21.125Z,112.35
2018-05-14T01:59:26.454Z,113.88
2018-05-14T02:00:32.952Z,113.28
2018-05-14T02:01:40.720Z,111.30
2018-05-14T02:02:46.933Z,111.57
2018-05-14T02:03:52.275Z,106.78
2018-05-14T02:04:57.602Z,107.00
2018-05-14T02:06:02.953Z,110.75
2018-05-14T02:07:08.320Z,110.07
2018-05-14T02:08:13.577Z,110.68
2018-05-14T02:09:18.949Z,109.12
2018-05-14T02:10:24.492Z,107.40
2018-05-14T02:11:29.761Z,160.80
2018-05-14T02:12:35.318Z,178.45
2018-05-14T02:13:40.860Z,120.65
2018-05-14T02:14:46.133Z,109.45
2018-05-14T02:15:51.401Z,108.57
2018-05-14T02:16:56.657Z,108.05
2018-05-14T02:18:01.924Z,109.32
2018-05-14T02:19:07.235Z,113.15
2018-05-14T02:20:12.465Z,113.35
2018-05-14T02:21:17.735Z,113.47
2018-05-14T02:22:23.019Z,112.80
2018-05-14T02:23:28.343Z,111.28
2018-05-14T02:24:35.339Z,110.43
2018-05-14T02:25:40.686Z,106.55
2018-05-14T02:26:46.115Z,113.90
2018-05-14T02:27:51.417Z,115.55
2018-05-14T02:28:56.657Z,111.18
2018-05-14T02:30:01.915Z,112.53
2018-05-14T02:31:07.203Z,115.53
2018-05-14T02:32:13.052Z,116.50
2018-05-14T02:33:18.353Z,117.93
2018-05-14T02:34:23.851Z,115.30
2018-05-14T02:35:29.295Z,114.15
2018-05-14T02:36:34.818Z,114.75
2018-05-14T02:37:40.128Z,115.43
2018-05-14T02:38:45.723Z,114.78
2018-05-14T02:39:50.982Z,115.65
2018-05-14T02:40:56.253Z,113.15
2018-05-14T02:42:01.648Z,113.20
2018-05-14T02:43:06.901Z,113.47
2018-05-14T02:44:12.142Z,111.47
2018-05-14T02:45:17.416Z,115.22
2018-05-14T02:46:22.711Z,117.95
2018-05-14T02:47:28.436Z,114.90
2018-05-14T02:48:33.774Z,111.77
2018-05-14T02:49:39.030Z,107.97
2018-05-14T02:50:44.406Z,107.43
2018-05-14T02:51:49.829Z,111.78
2018-05-14T02:52:55.123Z,117.18
2018-05-14T02:54:00.929Z,108.60
2018-05-14T02:55:06.214Z,109.70
2018-05-14T02:56:11.445Z,107.75
2018-05-14T02:57:17.009Z,108.47
2018-05-14T02:58:22.323Z,105.95
2018-05-14T02:59:27.568Z,108.95
2018-05-14T03:00:33.492Z,107.50
2018-05-14T03:01:38.897Z,111.70
2018-05-14T03:02:44.177Z,106.95
2018-05-14T03:03:49.441Z,105.35
2018-05-14T03:04:55.084Z,101.00
2018-05-14T03:06:00.342Z,97.57
2018-05-14T03:07:05.614Z,97.43
2018-05-14T03:08:10.897Z,102.35
2018-05-14T03:09:16.189Z,100.45
2018-05-14T03:10:21.486Z,100.68
2018-05-14T03:11:26.859Z,100.47
2018-05-14T03:12:32.900Z,99.60
2018-05-14T03:13:38.208Z,101.50
2018-05-14T03:14:43.702Z,100.90
2018-05-14T03:15:49.064Z,102.80
2018-05-14T03:16:54.375Z,102.87
2018-05-14T03:17:59.695Z,106.05
2018-05-14T03:19:05.011Z,103.40
2018-05-14T03:20:10.514Z,98.07
2018-05-14T03:21:15.849Z,95.82
2018-05-14T03:22:21.442Z,94.40
2018-05-14T03:23:26.752Z,95.70
2018-05-14T03:24:32.872Z,95.87
2018-05-14T03:25:38.202Z,100.90
2018-05-14T03:26:43.528Z,98.97
2018-05-14T03:27:48.854Z,102.93
2018-05-14T03:28:54.165Z,102.70
2018-05-14T03:29:59.731Z,102.97
2018-05-14T03:31:05.063Z,102.15
2018-05-14T03:32:10.343Z,101.68
2018-05-14T03:33:15.885Z,98.65
2018-05-14T03:34:21.164Z,99.30
2018-05-14T03:35:26.430Z,102.90
2018-05-14T03:36:32.387Z,104.43
2018-05-14T03:37:37.719Z,101.87
2018-05-14T03:38:42.993Z,104.50
2018-05-14T03:39:48.668Z,99.30
2018-05-14T03:40:54.296Z,98.37
2018-05-14T03:41:59.974Z,100.20
2018-05-14T03:43:05.231Z,102.22
2018-05-14T03:44:10.528Z,101.72
2018-05-14T03:45:15.971Z,97.53
2018-05-14T03:46:21.769Z,93.53
2018-05-14T03:47:27.034Z,91.27
2018-05-14T03:48:33.089Z,95.93
2018-05-14T03:49:38.626Z,93.80
2018-05-14T03:50:43.965Z,96.45
2018-05-14T03:51:49.561Z,98.57
2018-05-14T03:52:55.264Z,99.20
2018-05-14T03:54:00.595Z,97.72
2018-05-14T03:55:05.918Z,99.57
2018-05-14T03:56:11.283Z,96.82
2018-05-14T03:57:16.629Z,97.50
2018-05-14T03:58:26.370Z,96.65
2018-05-14T03:59:37.261Z,95.95
2018-05-14T04:01:14.157Z,93.05
2018-05-14T04:02:23.932Z,100.75
2018-05-14T04:03:34.639Z,102.10
2018-05-14T04:04:45.435Z,93.62
2018-05-14T04:05:55.122Z,99.67
2018-05-14T04:07:00.982Z,101.10
2018-05-14T04:08:06.616Z,102.20
2018-05-14T04:09:11.926Z,100.03
2018-05-14T04:10:17.246Z,101.22
2018-05-14T04:11:22.480Z,100.83
2018-05-14T04:12:27.722Z,98.85
2018-05-14T04:13:33.824Z,97.12
2018-05-14T04:14:39.057Z,100.65
2018-05-14T04:15:44.305Z,100.87
2018-05-14T04:16:49.588Z,101.35
2018-05-14T04:17:55.228Z,104.45
2018-05-14T04:19:00.528Z,103.15
2018-05-14T04:20:05.857Z,101.13
2018-05-14T04:21:11.197Z,102.50
2018-05-14T04:22:16.567Z,102.53
2018-05-14T04:23:21.953Z,102.57
2018-05-14T04:24:27.347Z,103.62
2018-05-14T04:25:33.513Z,99.97
2018-05-14T04:26:39.127Z,97.90
2018-05-14T04:27:44.563Z,97.68
2018-05-14T04:28:50.135Z,95.95
2018-05-14T04:29:55.936Z,90.72
2018-05-14T04:31:01.782Z,92.12
2018-05-14T04:32:07.101Z,87.30
2018-05-14T04:33:12.508Z,92.57
2018-05-14T04:34:17.793Z,86.43
2018-05-14T04:35:23.233Z,84.78
2018-05-14T04:36:28.571Z,83.35
2018-05-14T04:37:34.036Z,83.75
2018-05-14T04:38:39.372Z,81.82
2018-05-14T04:39:44.696Z,83.20
2018-05-14T04:40:50.257Z,77.25
2018-05-14T04:41:55.511Z,81.30
2018-05-14T04:43:00.759Z,78.47
2018-05-14T04:44:06.070Z,79.30
2018-05-14T04:45:11.554Z,78.50
2018-05-14T04:46:16.958Z,76.65
2018-05-14T04:47:22.287Z,77.93
2018-05-14T04:48:27.636Z,76.22
2018-05-14T04:49:33.796Z,77.65
2018-05-14T04:50:39.137Z,77.87
2018-05-14T04:51:44.801Z,78.07
2018-05-14T04:52:50.109Z,77.03
2018-05-14T04:53:55.582Z,79.12
2018-05-14T04:55:00.960Z,75.37
2018-05-14T04:56:06.246Z,77.62
2018-05-14T04:57:11.753Z,77.85
2018-05-14T04:58:17.027Z,74.72
2018-05-14T04:59:22.383Z,72.40
2018-05-14T05:00:27.600Z,74.65
2018-05-14T05:01:33.442Z,75.32
2018-05-14T05:02:38.800Z,73.35
2018-05-14T05:03:44.228Z,69.47
2018-05-14T05:04:49.944Z,70.43
2018-05-14T05:05:55.420Z,68.62
2018-05-14T05:07:00.763Z,70.68
2018-05-14T05:08:06.377Z,69.72
2018-05-14T05:09:11.711Z,70.55
2018-05-14T05:10:17.090Z,80.82
2018-05-14T05:11:22.330Z,71.75
2018-05-14T05:12:27.621Z,70.80
2018-05-14T05:13:33.795Z,68.70
2018-05-14T05:14:39.182Z,70.10
2018-05-14T05:15:44.471Z,71.53
2018-05-14T05:16:49.723Z,68.82
2018-05-14T05:17:54.980Z,65.80
2018-05-14T05:19:00.507Z,67.90
2018-05-14T05:20:05.813Z,66.00
2018-05-14T05:21:11.089Z,63.47
2018-05-14T05:22:16.424Z,66.35
2018-05-14T05:23:21.696Z,65.68
2018-05-14T05:24:27.222Z,65.80
2018-05-14T05:25:33.743Z,66.45
2018-05-14T05:26:39.042Z,66.50
2018-05-14T05:27:44.410Z,66.20
2018-05-14T05:28:49.953Z,66.93
2018-05-14T05:29:55.341Z,67.30
2018-05-14T05:31:00.690Z,68.72
2018-05-14T05:32:05.962Z,67.60
2018-05-14T05:33:11.259Z,69.70
2018-05-14T05:34:16.528Z,68.32
2018-05-14T05:35:22.475Z,68.55
2018-05-14T05:36:27.745Z,66.28
2018-05-14T05:37:33.859Z,66.25
2018-05-14T05:38:39.145Z,65.93
2018-05-14T05:39:44.479Z,66.10
2018-05-14T05:40:49.727Z,66.45
2018-05-14T05:41:54.976Z,67.47
2018-05-14T05:43:00.209Z,64.78
2018-05-14T05:44:05.552Z,64.00
2018-05-14T05:45:11.120Z,66.40
2018-05-14T05:46:16.378Z,64.55
2018-05-14T05:47:21.626Z,65.57
2018-05-14T05:48:26.889Z,68.57
2018-05-14T05:49:33.042Z,65.55
2018-05-14T05:50:38.621Z,66.60
2018-05-14T05:51:44.203Z,65.93
2018-05-14T05:52:49.469Z,62.90
2018-05-14T05:53:54.745Z,64.82
2018-05-14T05:55:00.120Z,62.75
2018-05-14T05:56:05.499Z,62.35
2018-05-14T05:57:10.843Z,62.70
2018-05-14T05:58:16.153Z,60.53
2018-05-14T05:59:21.438Z,60.93
2018-05-14T06:00:26.760Z,64.03
2018-05-14T06:01:32.613Z,61.03
2018-05-14T06:02:38.220Z,62.80
2018-05-14T06:03:43.512Z,62.55
2018-05-14T06:04:48.980Z,65.45
2018-05-14T06:05:54.472Z,64.10
2018-05-14T06:06:59.827Z,68.37
2018-05-14T06:08:05.356Z,67.07
2018-05-14T06:09:10.613Z,64.60
2018-05-14T06:10:15.870Z,70.53
2018-05-14T06:11:21.205Z,66.82
2018-05-14T06:12:26.483Z,64.13
2018-05-14T06:13:32.974Z,63.53
2018-05-14T06:14:38.268Z,67.15
2018-05-14T06:15:43.596Z,75.57
2018-05-14T06:16:48.909Z,70.90
2018-05-14T06:17:54.197Z,68.12
2018-05-14T06:18:59.870Z,67.65
2018-05-14T06:20:05.244Z,73.03
2018-05-14T06:21:10.685Z,79.85
2018-05-14T06:22:16.065Z,83.70
2018-05-14T06:23:21.381Z,81.25
2018-05-14T06:24:26.673Z,82.40
2018-05-14T06:25:32.404Z,90.35
2018-05-14T06:26:37.869Z,66.43
2018-05-14T06:27:43.127Z,73.28
2018-05-14T06:28:48.479Z,68.93
2018-05-14T06:29:54.126Z,75.03
2018-05-14T06:30:59.542Z,83.20
2018-05-14T06:32:05.074Z,70.25
2018-05-14T06:33:10.635Z,81.75
2018-05-14T06:34:16.331Z,76.00
2018-05-14T06:35:21.756Z,73.55
2018-05-14T06:36:27.451Z,64.47
2018-05-14T06:37:35.782Z,68.40
2018-05-14T06:38:41.232Z,75.15
2018-05-14T06:39:46.893Z,78.53
2018-05-14T06:40:53.073Z,79.72
2018-05-14T06:41:58.787Z,89.82
2018-05-14T06:43:04.164Z,83.53
2018-05-14T06:44:09.425Z,73.90
2018-05-14T06:45:14.855Z,75.62
2018-05-14T06:46:20.832Z,72.95
2018-05-14T06:47:26.260Z,70.30
2018-05-14T06:48:32.751Z,76.45
2018-05-14T06:49:38.016Z,74.28
2018-05-14T06:50:43.323Z,74.65
2018-05-14T06:51:48.924Z,67.60
2018-05-14T06:52:54.401Z,65.72
2018-05-14T06:54:00.773Z,70.22
2018-05-14T06:55:06.074Z,73.87
2018-05-14T06:56:11.518Z,66.70
2018-05-14T06:57:17.263Z,66.47
2018-05-14T06:58:23.531Z,63.72
2018-05-14T06:59:29.111Z,61.13
2018-05-14T07:00:34.784Z,64.80
2018-05-14T07:01:40.138Z,62.70
2018-05-14T07:02:45.747Z,65.00
2018-05-14T07:03:51.029Z,65.55
2018-05-14T07:04:56.583Z,69.20
2018-05-14T07:06:02.030Z,71.07
2018-05-14T07:07:08.384Z,63.20
2018-05-14T07:08:14.299Z,65.57
2018-05-14T07:09:19.932Z,62.55
2018-05-14T07:10:40.078Z,66.78
2018-05-14T07:11:45.678Z,60.72
2018-05-14T07:12:51.197Z,61.47
2018-05-14T07:13:56.662Z,59.08
2018-05-14T07:15:02.255Z,60.72
2018-05-14T07:16:07.833Z,65.50
2018-05-14T07:17:13.359Z,59.85
2018-05-14T07:18:19.189Z,58.05
2018-05-14T07:19:24.996Z,58.55
2018-05-14T07:20:30.767Z,59.57
2018-05-14T07:21:36.387Z,57.35
2018-05-14T07:22:41.932Z,63.92
2018-05-14T07:23:47.427Z,59.08
2018-05-14T07:24:53.451Z,59.85
2018-05-14T07:25:58.983Z,60.83
2018-05-14T07:27:05.394Z,60.57
2018-05-14T07:28:10.787Z,57.38
2018-05-14T07:29:16.575Z,61.97
2018-05-14T07:30:22.462Z,61.00
2018-05-14T07:31:28.027Z,60.85
2018-05-14T07:32:34.206Z,60.90
2018-05-14T07:33:39.936Z,60.65
2018-05-14T07:34:45.712Z,60.08
2018-05-14T07:35:52.678Z,63.30
2018-05-14T07:36:58.835Z,60.85
2018-05-14T07:38:04.319Z,62.17
2018-05-14T07:39:09.887Z,63.00
2018-05-14T07:40:15.560Z,63.10
2018-05-14T07:41:21.053Z,60.40
2018-05-14T07:42:26.471Z,62.28
2018-05-14T07:43:32.651Z,60.42
2018-05-14T07:44:38.099Z,63.15
2018-05-14T07:45:43.563Z,62.53
2018-05-14T07:46:49.343Z,62.00
2018-05-14T07:47:54.864Z,64.13
2018-05-14T07:49:00.407Z,60.67
2018-05-14T07:50:05.824Z,63.25
2018-05-14T07:51:11.411Z,63.53
2018-05-14T07:52:16.902Z,66.47
2018-05-14T07:53:22.887Z,63.30
2018-05-14T07:54:28.377Z,63.15
2018-05-14T07:55:34.281Z,65.07
2018-05-14T07:56:39.947Z,64.65
2018-05-14T07:57:45.173Z,62.55
2018-05-14T07:58:50.624Z,64.68
2018-05-14T07:59:56.065Z,63.28
2018-05-14T08:01:01.492Z,65.65
2018-05-14T08:02:06.970Z,68.65
2018-05-14T08:03:12.385Z,63.65
2018-05-14T08:04:17.899Z,65.75
2018-05-14T08:05:23.293Z,63.65
2018-05-14T08:06:28.693Z,64.67
2018-05-14T08:07:34.621Z,67.87
2018-05-14T08:08:39.996Z,68.12
2018-05-14T08:09:45.580Z,70.03
2018-05-14T08:10:50.994Z,82.50
2018-05-14T08:11:56.429Z,77.87
2018-05-14T08:13:01.839Z,73.47
2018-05-14T08:14:07.377Z,66.32
2018-05-14T08:15:13.318Z,61.97
2018-05-14T08:16:18.826Z,64.68
2018-05-14T08:17:24.230Z,65.12
2018-05-14T08:18:29.916Z,67.40
2018-05-14T08:19:35.367Z,62.60
2018-05-14T08:20:40.759Z,65.55
2018-05-14T08:21:46.136Z,66.65
2018-05-14T08:22:51.640Z,64.30
2018-05-14T08:23:57.102Z,59.42
2018-05-14T08:25:02.824Z,62.92
2018-05-14T08:26:08.228Z,63.90
2018-05-14T08:27:13.674Z,60.45
2018-05-14T08:28:19.108Z,61.92
2018-05-14T08:29:24.633Z,63.25
2018-05-14T08:30:30.147Z,62.97
2018-05-14T08:31:36.087Z,63.53
2018-05-14T08:32:41.547Z,65.28
2018-05-14T08:33:46.962Z,57.70
2018-05-14T08:34:52.380Z,59.20
2018-05-14T08:35:57.765Z,61.78
2018-05-14T08:37:03.269Z,54.60
2018-05-14T08:38:08.761Z,58.58
2018-05-14T08:39:14.142Z,56.78
2018-05-14T08:40:19.582Z,54.53
2018-05-14T08:41:25.040Z,56.83
2018-05-14T08:42:31.243Z,57.20
2018-05-14T08:43:36.745Z,56.88
2018-05-14T08:44:42.269Z,54.45
2018-05-14T08:45:47.749Z,54.90
2018-05-14T08:46:53.541Z,56.97
2018-05-14T08:47:58.967Z,57.15
2018-05-14T08:49:04.850Z,56.65
2018-05-14T08:50:10.771Z,59.40
2018-05-14T08:51:16.223Z,57.58
2018-05-14T08:52:21.702Z,55.30
2018-05-14T08:53:27.155Z,55.28
2018-05-14T08:54:34.117Z,55.97
2018-05-14T08:55:39.807Z,55.80
2018-05-14T08:56:45.228Z,54.92
2018-05-14T08:57:50.667Z,56.80
2018-05-14T08:58:56.152Z,53.22
2018-05-14T09:00:01.964Z,53.83
2018-05-14T09:01:07.324Z,54.17
2018-05-14T09:02:12.755Z,52.62
2018-05-14T09:03:18.251Z,52.42
2018-05-14T09:04:23.775Z,53.03
2018-05-14T09:05:31.839Z,53.00
2018-05-14T09:06:37.258Z,54.15
2018-05-14T09:07:42.843Z,54.60
2018-05-14T09:08:48.273Z,52.67
2018-05-14T09:09:53.706Z,52.22
2018-05-14T09:10:59.093Z,52.37
2018-05-14T09:12:04.570Z,51.70
2018-05-14T09:13:10.072Z,52.53
2018-05-14T09:14:15.915Z,52.25
2018-05-14T09:15:21.409Z,52.40
2018-05-14T09:16:27.295Z,50.55
2018-05-14T09:17:33.621Z,51.50
2018-05-14T09:18:39.146Z,49.33
2018-05-14T09:19:44.587Z,52.13
2018-05-14T09:20:50.103Z,50.63
2018-05-14T09:21:55.952Z,50.03
2018-05-14T09:23:01.478Z,54.00
2018-05-14T09:24:06.955Z,53.63
2018-05-14T09:25:13.022Z,55.80
2018-05-14T09:26:24.720Z,52.38
2018-05-14T09:27:31.267Z,53.10
2018-05-14T09:28:36.897Z,50.85
2018-05-14T09:29:42.538Z,51.83
2018-05-14T09:30:48.258Z,50.72
2018-05-14T09:31:53.852Z,51.50
2018-05-14T09:33:00.107Z,49.05
2018-05-14T09:34:05.642Z,52.17
2018-05-14T09:35:11.125Z,52.92
2018-05-14T09:36:16.619Z,51.00
2018-05-14T09:37:22.339Z,50.33
2018-05-14T09:38:40.031Z,50.30
2018-05-14T09:39:45.431Z,51.13
2018-05-14T09:40:50.906Z,47.15
2018-05-14T09:41:56.315Z,49.05
2018-05-14T09:43:01.840Z,48.83
2018-05-14T09:44:07.752Z,47.20
2018-05-14T09:45:13.207Z,47.97
2018-05-14T09:46:18.692Z,49.57
2018-05-14T09:47:24.147Z,46.90
2018-05-14T09:48:29.581Z,47.42
2018-05-14T09:49:35.062Z,48.08
2018-05-14T09:50:40.503Z,49.07
2018-05-14T09:51:45.993Z,62.97
2018-05-14T09:52:51.581Z,51.90
2018-05-14T09:53:57.057Z,51.17
2018-05-14T09:55:02.875Z,48.25
2018-05-14T09:56:08.385Z,47.15
2018-05-14T09:57:13.902Z,46.00
2018-05-14T09:58:19.473Z,46.13
2018-05-14T09:59:24.888Z,45.97
2018-05-14T10:00:30.637Z,43.60
2018-05-14T10:01:36.519Z,47.78
2018-05-14T10:02:42.004Z,55.08
2018-05-14T10:03:47.470Z,62.05
2018-05-14T10:04:53.324Z,49.95
2018-05-14T10:05:58.814Z,59.13
2018-05-14T10:07:04.356Z,78.32
2018-05-14T10:08:09.801Z,61.00
2018-05-14T10:09:15.229Z,52.67
2018-05-14T10:10:20.765Z,54.47
2018-05-14T10:11:26.733Z,59.10
2018-05-14T10:12:33.295Z,92.50
2018-05-14T10:13:38.846Z,105.43
2018-05-14T10:14:44.605Z,85.00
2018-05-14T10:15:50.077Z,104.47
2018-05-14T10:16:56.079Z,73.57
2018-05-14T10:18:01.580Z,57.35
2018-05-14T10:19:07.045Z,48.53
2018-05-14T10:20:12.933Z,51.88
2018-05-14T10:22:40.744Z,55.90
2018-05-14T10:24:00.994Z,58.83
2018-05-14T10:25:07.193Z,55.40
2018-05-14T10:26:12.776Z,53.00
2018-05-14T10:27:18.295Z,49.53
2018-05-14T10:28:24.402Z,52.88
2018-05-14T10:29:29.932Z,48.58
2018-05-14T10:30:37.326Z,45.85
2018-05-14T10:31:42.928Z,47.97
2018-05-14T10:32:48.689Z,50.12
2018-05-14T10:33:54.248Z,47.13
2018-05-14T10:34:59.899Z,48.72
2018-05-14T10:36:06.486Z,46.63
2018-05-14T10:37:12.368Z,46.47
2018-05-14T10:38:17.814Z,44.97
2018-05-14T10:39:28.635Z,46.63
2018-05-14T10:40:34.366Z,48.67
2018-05-14T10:41:39.974Z,45.42
2018-05-14T10:42:45.588Z,47.13
2018-05-14T10:43:51.514Z,47.30
2018-05-14T10:44:57.071Z,44.80
2018-05-14T10:46:41.106Z,44.47
2018-05-14T10:47:46.846Z,43.50
2018-05-14T10:48:52.714Z,45.47
2018-05-14T10:49:58.202Z,44.83
2018-05-14T10:51:03.774Z,42.97
2018-05-14T10:52:09.231Z,43.60
2018-05-14T10:53:14.887Z,43.42
2018-05-14T10:54:20.385Z,43.63
2018-05-14T10:55:26.186Z,43.17
2018-05-14T10:56:32.194Z,43.95
2018-05-14T10:57:37.743Z,42.25
2018-05-14T10:58:44.414Z,41.80
2018-05-14T10:59:57.541Z,41.13
2018-05-14T11:01:03.277Z,40.58
2018-05-14T11:02:08.694Z,42.10
2018-05-14T11:03:14.423Z,41.90
2018-05-14T11:04:19.878Z,41.75
2018-05-14T11:05:25.348Z,43.55
2018-05-14T11:06:31.237Z,44.17
2018-05-14T11:07:37.086Z,44.28
2018-05-14T11:08:42.854Z,41.13
2018-05-14T11:09:48.320Z,41.57
2018-05-14T11:10:53.797Z,40.78
2018-05-14T11:11:59.281Z,39.05
2018-05-14T11:13:04.778Z,40.60
2018-05-14T11:14:10.239Z,38.37
2018-05-14T11:15:15.739Z,38.03
2018-05-14T11:16:21.169Z,37.92
2018-05-14T11:17:26.609Z,39.67
2018-05-14T11:18:32.820Z,35.70
2018-05-14T11:19:38.294Z,34.80
2018-05-14T11:20:43.863Z,38.22
2018-05-14T11:21:49.732Z,43.40
2018-05-14T11:22:55.603Z,44.25
2018-05-14T11:24:01.236Z,40.88
2018-05-14T11:25:07.423Z,43.70
2018-05-14T11:26:13.390Z,45.83
2018-05-14T11:27:18.832Z,39.75
2018-05-14T11:28:24.536Z,42.40
2018-05-14T11:29:31.130Z,53.63
2018-05-14T11:30:36.649Z,47.72
2018-05-14T11:31:42.247Z,72.68
2018-05-14T11:32:47.777Z,62.30
2018-05-14T11:33:53.502Z,45.53
2018-05-14T11:34:59.383Z,40.35
2018-05-14T11:36:04.845Z,43.60
2018-05-14T11:37:10.282Z,39.23
2018-05-14T11:38:15.676Z,47.28
2018-05-14T11:39:21.198Z,39.17
2018-05-14T11:40:26.590Z,39.20
2018-05-14T11:41:32.610Z,44.45
2018-05-14T11:42:38.132Z,44.13
2018-05-14T11:43:43.541Z,38.75
2018-05-14T11:44:49.007Z,38.00
2018-05-14T11:45:54.458Z,39.83
2018-05-14T11:46:59.943Z,38.67
2018-05-14T11:48:05.377Z,37.75
2018-05-14T11:49:10.762Z,39.70
2018-05-14T11:50:16.161Z,42.28
2018-05-14T11:51:21.626Z,52.60
2018-05-14T11:52:27.183Z,45.30
2018-05-14T11:53:33.079Z,44.92
2018-05-14T11:54:38.516Z,45.67
2018-05-14T11:55:43.928Z,45.05
2018-05-14T11:56:49.362Z,50.22
2018-05-14T11:57:54.801Z,52.85
2018-05-14T11:59:00.229Z,42.53
2018-05-14T12:00:05.717Z,41.42
2018-05-14T12:01:11.113Z,39.33
2018-05-14T12:02:16.941Z,48.00
2018-05-14T12:03:22.471Z,42.50
2018-05-14T12:04:27.865Z,34.88
2018-05-14T12:05:33.968Z,44.88
2018-05-14T12:06:39.394Z,52.40
2018-05-14T12:07:44.945Z,41.78
2018-05-14T12:08:50.419Z,48.25
2018-05-14T12:09:55.918Z,36.10
2018-05-14T12:11:01.439Z,33.53
2018-05-14T12:12:06.867Z,35.05
2018-05-14T12:13:12.291Z,38.03
2018-05-14T12:14:18.045Z,29.27
2018-05-14T12:15:23.509Z,38.75
2018-05-14T12:16:28.924Z,35.10
2018-05-14T12:17:34.515Z,33.90
2018-05-14T12:18:40.475Z,29.33
2018-05-14T12:19:45.893Z,34.03
2018-05-14T12:20:51.351Z,32.30
2018-05-14T12:21:56.822Z,29.90
2018-05-14T12:23:02.443Z,37.63
2018-05-14T12:24:08.065Z,33.13
2018-05-14T12:25:14.601Z,28.50
2018-05-14T12:26:20.048Z,22.92
2018-05-14T12:27:28.506Z,22.92
2018-05-14T12:28:34.317Z,22.73
2018-05-14T12:29:39.736Z,22.23
2018-05-14T12:30:45.160Z,23.48
2018-05-14T12:31:50.606Z,23.07
2018-05-14T12:32:56.038Z,22.40
2018-05-14T12:34:01.539Z,21.80
2018-05-14T12:35:07.011Z,18.65
2018-05-14T12:36:12.841Z,19.85
2018-05-14T12:37:18.279Z,18.75
2018-05-14T12:38:23.869Z,30.25
2018-05-14T12:39:29.308Z,37.55
2018-05-14T12:40:34.805Z,51.83
2018-05-14T12:41:40.728Z,56.37
2018-05-14T12:42:46.181Z,55.35
2018-05-14T12:43:51.670Z,59.55
2018-05-14T12:44:57.095Z,78.87
2018-05-14T12:46:02.552Z,95.97
2018-05-14T12:47:08.020Z,146.27
2018-05-14T12:48:13.497Z,67.53
2018-05-14T12:49:18.927Z,65.32
2018-05-14T12:50:24.339Z,35.63
2018-05-14T12:51:29.766Z,39.95
2018-05-14T12:52:35.334Z,33.78
2018-05-14T12:53:41.366Z,47.87
2018-05-14T12:54:46.804Z,52.17
2018-05-14T12:55:52.246Z,37.45
2018-05-14T12:56:57.784Z,97.93
2018-05-14T12:58:03.302Z,68.68
2018-05-14T12:59:08.859Z,54.17
2018-05-14T13:00:14.280Z,79.37
2018-05-14T13:01:19.900Z,30.40
2018-05-14T13:02:25.339Z,44.00
2018-05-14T13:03:31.215Z,33.50
2018-05-14T13:04:37.005Z,41.45
2018-05-14T13:05:42.413Z,40.28
2018-05-14T13:06:48.012Z,57.75
2018-05-14T13:07:53.433Z,28.43
2018-05-14T13:08:58.868Z,20.15
2018-05-14T13:10:04.473Z,30.62
2018-05-14T13:11:09.944Z,36.60
2018-05-14T13:12:15.355Z,29.05
2018-05-14T13:13:20.858Z,33.73
2018-05-14T13:14:26.294Z,30.80
2018-05-14T13:15:32.357Z,25.65
2018-05-14T13:16:37.911Z,26.30
2018-05-14T13:17:43.428Z,25.00
2018-05-14T13:18:48.853Z,31.17
2018-05-14T13:19:54.303Z,27.62
2018-05-14T13:20:59.760Z,27.02
2018-05-14T13:22:05.709Z,36.55
2018-05-14T13:23:11.198Z,22.55
2018-05-14T13:24:16.693Z,23.25
2018-05-14T13:25:22.194Z,32.38
2018-05-14T13:26:27.713Z,20.00
2018-05-14T13:27:34.155Z,20.20
2018-05-14T13:28:39.671Z,21.60
2018-05-14T13:29:45.133Z,18.15
2018-05-14T13:30:50.673Z,14.40
2018-05-14T13:31:56.230Z,10.98
2018-05-14T13:33:01.984Z,16.20
2018-05-14T13:34:07.431Z,20.33
2018-05-14T13:35:12.872Z,20.45
2018-05-14T13:36:18.334Z,29.10
2018-05-14T13:37:23.891Z,11.80
2018-05-14T13:38:29.357Z,14.20
2018-05-14T13:39:34.810Z,20.83
2018-05-14T13:40:40.294Z,19.17
2018-05-14T13:41:45.839Z,19.77
2018-05-14T13:42:51.407Z,22.85
2018-05-14T13:43:56.877Z,20.42
2018-05-14T13:45:02.390Z,15.07
2018-05-14T13:46:08.053Z,14.35
2018-05-14T13:47:13.654Z,13.02
2018-05-14T13:48:19.186Z,11.20
2018-05-14T13:49:24.985Z,11.70
2018-05-14T13:50:31.029Z,10.90
2018-05-14T13:51:36.501Z,8.63
2018-05-14T13:52:41.990Z,9.30
2018-05-14T13:53:47.418Z,9.68
2018-05-14T13:54:52.878Z,9.07
2018-05-14T13:55:58.548Z,8.00
2018-05-14T13:57:04.167Z,9.48
2018-05-14T13:58:09.740Z,7.50
2018-05-14T13:59:15.203Z,7.53
2018-05-14T14:00:20.951Z,7.43
2018-05-14T14:01:26.352Z,7.15
2018-05-14T14:02:32.290Z,6.82
2018-05-14T14:03:37.720Z,7.20